Time;durP1;ratioP1;P1;durP2;ratioP2;P2;SDS_P1;SDS_P2;PMS_P1;PMS_P2;Temp;Humidity;BMP_temperature;BMP_pressure;BME280_temperature;BME280_humidity;BME280_pressure;Samples;Min_cycle;Max_cycle;Signal;HPM_P1;HPM_P2
2022/01/26 00:06:37;;;;;;;79.25;36.58;;;3.70;99.90;;;;;;5074496;28;20045;-72
2022/01/26 00:09:04;;;;;;;76.75;36.65;;;3.60;99.90;;;;;;5074627;28;20081;-72
2022/01/26 00:11:32;;;;;;;79.53;36.83;;;3.60;99.90;;;;;;5074969;28;20084;-72
2022/01/26 00:14:00;;;;;;;78.78;37.25;;;3.70;99.90;;;;;;5075316;28;20046;-71
2022/01/26 00:16:28;;;;;;;79.00;35.05;;;3.60;99.90;;;;;;5061587;28;20043;-72
2022/01/26 00:19:00;;;;;;;78.10;35.83;;;3.60;99.90;;;;;;5078202;28;20048;-72
2022/01/26 00:21:40;;;;;;;78.93;35.40;;;3.60;99.90;;;;;;5078336;28;20040;-71
2022/01/26 00:29:22;;;;;;;80.57;37.55;;;3.50;99.90;;;;;;5078317;28;20047;-72
2022/01/26 00:40:22;;;;;;;93.50;39.15;;;3.40;99.90;;;;;;5078277;28;20043;-71
2022/01/26 00:42:51;;;;;;;86.25;38.80;;;3.40;99.90;;;;;;5077875;28;20039;-71
2022/01/26 00:45:21;;;;;;;86.72;39.03;;;3.40;99.90;;;;;;5077781;28;20044;-71
2022/01/26 00:47:47;;;;;;;85.57;37.10;;;3.40;99.90;;;;;;5077967;28;20385;-72
2022/01/26 00:50:13;;;;;;;91.35;40.13;;;3.40;99.90;;;;;;5077947;28;20512;-72
2022/01/26 00:52:41;;;;;;;90.47;40.33;;;3.30;99.90;;;;;;5077624;28;20387;-71
2022/01/26 00:55:15;;;;;;;88.75;39.40;;;3.30;99.90;;;;;;5077883;28;20387;-71
2022/01/26 00:57:41;;;;;;;88.45;38.92;;;3.30;99.90;;;;;;5061074;28;20055;-71
2022/01/26 01:00:11;;;;;;;88.03;41.17;;;3.20;99.90;;;;;;5077775;28;20055;-72
2022/01/26 01:02:36;;;;;;;84.55;39.08;;;3.20;99.90;;;;;;5077526;28;20162;-71
2022/01/26 01:05:11;;;;;;;95.30;40.17;;;3.20;99.90;;;;;;5077339;28;20127;-71
2022/01/26 01:07:38;;;;;;;94.32;39.13;;;3.20;99.90;;;;;;5077365;28;20043;-72
2022/01/26 01:10:04;;;;;;;84.60;37.55;;;3.20;99.90;;;;;;5077309;28;20512;-71
2022/01/26 01:12:32;;;;;;;83.07;38.58;;;3.20;99.90;;;;;;5060780;28;20040;-71
2022/01/26 01:14:58;;;;;;;84.68;38.05;;;3.20;99.90;;;;;;5060604;28;20127;-71
2022/01/26 01:17:31;;;;;;;90.15;38.85;;;3.20;99.90;;;;;;5077445;28;20131;-72
2022/01/26 01:22:50;;;;;;;80.82;37.83;;;3.20;99.90;;;;;;5077170;28;20106;-72
2022/01/26 01:28:00;;;;;;;79.88;37.78;;;3.30;99.90;;;;;;5077107;28;20047;-72
2022/01/26 01:30:37;;;;;;;85.25;37.90;;;3.20;99.90;;;;;;5077017;28;20040;-71
2022/01/26 01:33:08;;;;;;;83.55;38.75;;;3.20;99.90;;;;;;5076887;28;20386;-71
2022/01/26 01:35:37;;;;;;;86.03;37.90;;;3.20;99.90;;;;;;5076772;28;20044;-71
2022/01/26 01:38:13;;;;;;;82.78;37.92;;;3.20;99.90;;;;;;5076918;28;20497;-72
2022/01/26 01:40:42;;;;;;;89.22;39.78;;;3.30;99.90;;;;;;5076812;28;20044;-72
2022/01/26 01:43:08;;;;;;;81.35;38.55;;;3.20;99.90;;;;;;5076978;28;20059;-71
2022/01/26 01:45:41;;;;;;;80.07;37.90;;;3.30;99.90;;;;;;5076620;28;20044;-71
2022/01/26 01:48:07;;;;;;;86.15;36.92;;;3.30;99.90;;;;;;5076576;28;20093;-71
2022/01/26 01:50:39;;;;;;;84.57;38.47;;;3.20;99.90;;;;;;5076572;28;20072;-71
2022/01/26 01:53:05;;;;;;;80.45;37.50;;;3.30;99.90;;;;;;5076794;28;20042;-71
2022/01/26 01:55:32;;;;;;;82.93;37.67;;;3.20;99.90;;;;;;5076730;28;20035;-71
2022/01/26 01:57:59;;;;;;;79.75;36.88;;;3.20;99.90;;;;;;5076668;28;20102;-71
2022/01/26 02:00:26;;;;;;;89.80;38.33;;;3.10;99.90;;;;;;5076292;28;20078;-71
2022/01/26 02:02:51;;;;;;;83.55;35.92;;;3.10;99.90;;;;;;5076565;28;20110;-71
2022/01/26 02:05:17;;;;;;;76.13;35.33;;;3.10;99.90;;;;;;5076239;28;20546;-71
2022/01/26 02:07:43;;;;;;;83.93;38.35;;;3.20;99.90;;;;;;5076145;28;20047;-72
2022/01/26 02:10:09;;;;;;;77.22;35.35;;;3.20;99.90;;;;;;5076441;28;20036;-72
2022/01/26 02:12:39;;;;;;;83.22;38.75;;;3.20;99.90;;;;;;5076140;28;20118;-72
2022/01/26 02:15:12;;;;;;;83.38;38.08;;;3.20;99.90;;;;;;5076020;28;20043;-72
2022/01/26 02:50:53;;;;;;;80.38;36.35;;;2.90;99.90;;;;;;5075398;28;20043;-72
2022/01/26 02:53:41;;;;;;;86.03;36.55;;;2.90;99.90;;;;;;5075477;28;20086;-72
2022/01/26 02:56:13;;;;;;;87.80;36.97;;;2.80;99.90;;;;;;5075421;28;20189;-71
2022/01/26 03:04:41;;;;;;;86.05;35.90;;;2.80;99.90;;;;;;4995105;28;20140;-72
2022/01/26 03:07:26;;;;;;;94.45;38.70;;;2.80;99.90;;;;;;4978751;28;20050;-72
2022/01/26 03:10:02;;;;;;;88.28;37.20;;;2.80;99.90;;;;;;4995029;28;20188;-71
2022/01/26 03:12:31;;;;;;;90.32;36.25;;;2.80;99.90;;;;;;4995238;28;20048;-71
2022/01/26 03:15:01;;;;;;;86.55;37.30;;;2.80;99.90;;;;;;4995249;28;20508;-71
2022/01/26 03:20:12;;;;;;;92.18;37.17;;;2.80;99.90;;;;;;4995042;28;20529;-71
2022/01/26 03:28:16;;;;;;;96.90;39.42;;;2.80;99.90;;;;;;4994671;28;20045;-72
2022/01/26 03:33:24;;;;;;;94.82;39.35;;;2.80;99.90;;;;;;4994969;28;20050;-72
2022/01/26 03:35:55;;;;;;;88.53;38.40;;;2.80;99.90;;;;;;4994718;28;20045;-72
2022/01/26 03:38:29;;;;;;;91.90;40.35;;;2.80;99.90;;;;;;4994558;28;20050;-72
2022/01/26 03:41:12;;;;;;;92.60;38.35;;;2.80;99.90;;;;;;5051871;28;20055;-72
2022/01/26 03:43:37;;;;;;;92.00;38.97;;;2.80;99.90;;;;;;5058240;28;20075;-71
2022/01/26 03:46:03;;;;;;;96.50;39.70;;;2.80;99.90;;;;;;5074826;28;20089;-72
2022/01/26 03:48:29;;;;;;;94.43;38.17;;;2.70;99.90;;;;;;5076590;28;20040;-72
2022/01/26 03:50:54;;;;;;;93.18;39.25;;;2.70;99.90;;;;;;5078817;28;20039;-72
2022/01/26 03:53:20;;;;;;;89.38;37.83;;;2.70;99.90;;;;;;5078849;28;20126;-72
2022/01/26 03:55:45;;;;;;;90.50;38.30;;;2.70;99.90;;;;;;5078818;28;20231;-72
2022/01/26 03:58:11;;;;;;;96.30;38.60;;;2.80;99.90;;;;;;5078731;28;20093;-72
2022/01/26 04:00:36;;;;;;;89.15;37.25;;;2.80;99.90;;;;;;5078692;28;20467;-72
2022/01/26 04:03:03;;;;;;;91.00;38.42;;;2.70;99.90;;;;;;5061932;28;20047;-72
2022/01/26 04:05:28;;;;;;;92.53;37.60;;;2.70;99.90;;;;;;5078483;28;20069;-72
2022/01/26 04:07:59;;;;;;;95.28;39.28;;;2.70;99.90;;;;;;5078491;28;20032;-72
2022/01/26 04:10:45;;;;;;;94.88;38.75;;;2.70;99.90;;;;;;5078770;28;20051;-71
2022/01/26 04:13:11;;;;;;;95.03;38.80;;;2.70;99.90;;;;;;5078511;28;20032;-71
2022/01/26 04:15:37;;;;;;;92.95;39.88;;;2.70;99.90;;;;;;5078407;28;20044;-71
2022/01/26 04:18:07;;;;;;;92.10;39.45;;;2.70;99.90;;;;;;5078196;28;20086;-72
2022/01/26 04:20:41;;;;;;;94.47;38.13;;;2.70;99.90;;;;;;5078243;28;20579;-72
2022/01/26 04:23:13;;;;;;;91.47;37.38;;;2.70;99.90;;;;;;5078284;28;20086;-72
2022/01/26 04:25:41;;;;;;;89.22;36.88;;;2.70;99.90;;;;;;5078215;28;20051;-72
2022/01/26 04:28:12;;;;;;;88.95;38.00;;;2.70;99.90;;;;;;5061498;28;20072;-72
2022/01/26 04:30:39;;;;;;;84.35;35.35;;;2.70;99.90;;;;;;5061572;28;20040;-72
2022/01/26 04:33:06;;;;;;;86.10;36.90;;;2.70;99.90;;;;;;5077995;28;20078;-72
2022/01/26 04:35:33;;;;;;;85.93;36.40;;;2.60;99.90;;;;;;5077963;28;20051;-71
2022/01/26 04:38:22;;;;;;;86.45;35.83;;;2.60;99.90;;;;;;5078026;28;20036;-72
2022/01/26 04:41:12;;;;;;;83.03;36.10;;;2.70;99.90;;;;;;5078177;28;20040;-71
2022/01/26 04:43:37;;;;;;;80.68;35.05;;;2.70;99.90;;;;;;5078279;28;20101;-71
2022/01/26 04:46:05;;;;;;;81.45;33.88;;;2.70;99.90;;;;;;5077681;28;20086;-71
2022/01/26 04:48:31;;;;;;;86.80;36.67;;;2.60;99.90;;;;;;5077647;28;20093;-71
2022/01/26 04:50:56;;;;;;;77.85;33.15;;;2.70;99.90;;;;;;5077788;28;20036;-71
2022/01/26 04:53:22;;;;;;;84.32;34.72;;;2.70;99.90;;;;;;5077971;28;20043;-71
2022/01/26 04:55:48;;;;;;;76.25;33.05;;;2.70;99.90;;;;;;5078486;28;20032;-71
2022/01/26 04:58:13;;;;;;;83.63;34.15;;;2.70;99.90;;;;;;5077534;28;20528;-71
2022/01/26 05:00:39;;;;;;;75.28;32.88;;;2.70;99.90;;;;;;5076911;28;20092;-71
2022/01/26 05:03:04;;;;;;;76.80;33.78;;;2.70;99.90;;;;;;5078338;28;20120;-71
2022/01/26 05:05:30;;;;;;;81.03;33.75;;;2.70;99.90;;;;;;5077665;28;20054;-71
2022/01/26 05:07:56;;;;;;;75.55;31.77;;;2.70;99.90;;;;;;5060884;28;20035;-72
2022/01/26 05:10:21;;;;;;;78.53;32.83;;;2.70;99.90;;;;;;5077407;28;20486;-71
2022/01/26 05:12:47;;;;;;;84.10;34.92;;;2.60;99.90;;;;;;5077402;28;20040;-71
2022/01/26 05:15:13;;;;;;;80.35;33.65;;;2.60;99.90;;;;;;5077280;28;20052;-71
2022/01/26 05:17:40;;;;;;;77.20;32.70;;;2.60;99.90;;;;;;5077156;28;20046;-71
2022/01/26 05:20:08;;;;;;;80.13;33.05;;;2.70;99.90;;;;;;5077213;28;20040;-72
2022/01/26 05:22:34;;;;;;;84.57;33.55;;;2.60;99.90;;;;;;5077180;28;20043;-71
2022/01/26 05:24:59;;;;;;;79.55;34.72;;;2.60;99.90;;;;;;5077053;28;20044;-71
2022/01/26 05:27:25;;;;;;;81.13;32.17;;;2.60;99.90;;;;;;5076971;28;20086;-72
2022/01/26 05:29:51;;;;;;;79.32;33.03;;;2.60;99.90;;;;;;5077010;28;20580;-72
2022/01/26 05:32:17;;;;;;;73.45;32.20;;;2.60;99.90;;;;;;5077297;28;20119;-72
2022/01/26 05:34:42;;;;;;;79.10;32.80;;;2.60;99.90;;;;;;5077219;28;20506;-72
2022/01/26 05:37:08;;;;;;;78.70;31.20;;;2.60;99.90;;;;;;5076699;28;20048;-72
2022/01/26 05:39:33;;;;;;;71.40;30.10;;;2.60;99.90;;;;;;5076822;28;20044;-71
2022/01/26 05:42:04;;;;;;;74.35;32.15;;;2.60;99.90;;;;;;5076785;28;20077;-71
2022/01/26 05:44:30;;;;;;;78.25;30.90;;;2.60;99.90;;;;;;5077040;28;20040;-71
2022/01/26 05:46:56;;;;;;;71.18;29.98;;;2.60;99.90;;;;;;5076545;28;20406;-71
2022/01/26 05:49:21;;;;;;;72.22;29.05;;;2.60;99.90;;;;;;5076655;28;20038;-71
2022/01/26 05:51:47;;;;;;;73.53;29.80;;;2.60;99.90;;;;;;5076842;28;20055;-71
2022/01/26 05:54:15;;;;;;;78.30;30.88;;;2.60;99.90;;;;;;5076587;28;20036;-71
2022/01/26 05:56:42;;;;;;;68.88;30.17;;;2.60;99.90;;;;;;5076678;28;20043;-71
2022/01/26 05:59:08;;;;;;;70.18;30.05;;;2.60;99.90;;;;;;5076427;28;20051;-71
2022/01/26 06:01:35;;;;;;;68.25;28.90;;;2.60;99.90;;;;;;5076371;28;20036;-71
2022/01/26 06:04:00;;;;;;;70.32;30.42;;;2.50;99.90;;;;;;5076237;28;20079;-71
2022/01/26 06:06:26;;;;;;;72.60;31.48;;;2.50;99.90;;;;;;5076146;28;20086;-72
2022/01/26 06:08:51;;;;;;;70.28;28.70;;;2.50;99.90;;;;;;5076430;28;20044;-71
2022/01/26 06:11:17;;;;;;;74.75;30.52;;;2.50;99.90;;;;;;5075525;28;20028;-71
2022/01/26 06:13:43;;;;;;;71.47;29.80;;;2.50;99.90;;;;;;5075916;28;20032;-71
2022/01/26 06:16:08;;;;;;;68.53;28.67;;;2.60;99.90;;;;;;5076213;28;20198;-71
2022/01/26 06:18:34;;;;;;;71.53;29.48;;;2.50;99.90;;;;;;5075998;28;20509;-71
2022/01/26 06:20:59;;;;;;;68.93;29.10;;;2.50;99.90;;;;;;5076015;28;20108;-71
2022/01/26 06:23:25;;;;;;;67.38;29.30;;;2.50;99.90;;;;;;5075913;28;20048;-71
2022/01/26 06:25:57;;;;;;;66.72;28.85;;;2.50;99.90;;;;;;5075755;28;20043;-71
2022/01/26 06:28:24;;;;;;;68.18;27.10;;;2.50;99.90;;;;;;5075785;28;20051;-71
2022/01/26 06:30:55;;;;;;;67.07;28.98;;;2.50;99.90;;;;;;5075827;28;20044;-71
2022/01/26 06:33:21;;;;;;;65.10;27.52;;;2.50;99.90;;;;;;5059174;28;20046;-71
2022/01/26 06:35:48;;;;;;;63.10;28.05;;;2.50;99.90;;;;;;5075605;28;20111;-71
2022/01/26 06:38:16;;;;;;;63.40;27.25;;;2.50;99.90;;;;;;5075472;28;20047;-72
2022/01/26 06:40:42;;;;;;;65.75;29.02;;;2.50;99.90;;;;;;5075895;28;20047;-71
2022/01/26 06:43:14;;;;;;;63.63;27.83;;;2.50;99.90;;;;;;5075554;28;20040;-71
2022/01/26 06:45:54;;;;;;;64.18;27.92;;;2.50;99.90;;;;;;5058938;28;20032;-71
2022/01/26 06:48:42;;;;;;;62.78;27.27;;;2.50;99.90;;;;;;5075490;28;20043;-71
2022/01/26 06:51:09;;;;;;;67.10;27.85;;;2.60;99.90;;;;;;5075502;28;20547;-71
2022/01/26 06:53:35;;;;;;;63.65;27.45;;;2.50;99.90;;;;;;5075724;28;20048;-71
2022/01/26 06:56:00;;;;;;;68.88;28.88;;;2.50;99.90;;;;;;5075394;28;20039;-71
2022/01/26 06:58:26;;;;;;;60.25;27.20;;;2.60;99.90;;;;;;5075352;28;20039;-72
2022/01/26 07:00:52;;;;;;;57.17;25.67;;;2.60;99.90;;;;;;5075639;28;20139;-72
2022/01/26 07:03:17;;;;;;;61.20;27.20;;;2.60;99.90;;;;;;5075312;28;20449;-71
2022/01/26 07:05:43;;;;;;;61.63;28.55;;;2.60;99.90;;;;;;5075215;28;20083;-71
2022/01/26 07:08:09;;;;;;;60.90;27.08;;;2.60;99.90;;;;;;5075472;28;20058;-71
2022/01/26 07:10:35;;;;;;;61.58;28.10;;;2.60;99.90;;;;;;5075225;28;20486;-71
2022/01/26 07:13:02;;;;;;;67.35;28.90;;;2.60;99.90;;;;;;5075192;28;20123;-71
2022/01/26 07:23:46;;;;;;;64.03;29.08;;;2.60;99.90;;;;;;5074803;28;20490;-71
2022/01/26 07:26:12;;;;;;;65.20;30.05;;;2.70;99.90;;;;;;5075030;28;20040;-71
2022/01/26 07:28:39;;;;;;;69.32;30.05;;;2.70;99.90;;;;;;5075008;28;20097;-71
2022/01/26 07:31:05;;;;;;;70.68;30.50;;;2.60;99.90;;;;;;5074927;28;20036;-71
2022/01/26 07:33:32;;;;;;;76.10;33.92;;;2.70;99.90;;;;;;5075012;28;20090;-71
2022/01/26 07:35:58;;;;;;;71.03;32.40;;;2.70;99.90;;;;;;5075570;28;20052;-71
2022/01/26 07:38:25;;;;;;;69.75;31.88;;;2.70;99.90;;;;;;5075041;28;20126;-71
2022/01/26 07:40:51;;;;;;;73.78;34.67;;;2.70;99.90;;;;;;5074940;28;20481;-71
2022/01/26 07:43:16;;;;;;;75.85;34.20;;;2.70;99.90;;;;;;5058202;28;20078;-71
2022/01/26 07:45:42;;;;;;;75.78;34.35;;;2.70;99.90;;;;;;5074983;28;20048;-71
2022/01/26 07:48:08;;;;;;;75.47;34.35;;;2.70;99.90;;;;;;5075849;28;20040;-71
2022/01/26 07:50:34;;;;;;;75.97;34.40;;;2.70;99.90;;;;;;5074981;28;20040;-71
2022/01/26 07:53:01;;;;;;;80.80;35.90;;;2.70;99.90;;;;;;5074823;28;20569;-71
2022/01/26 07:55:27;;;;;;;75.95;34.92;;;2.70;99.90;;;;;;5075017;28;20044;-71
2022/01/26 07:57:55;;;;;;;85.10;38.13;;;2.70;99.90;;;;;;5074699;28;20406;-71
2022/01/26 08:00:21;;;;;;;77.55;34.95;;;2.70;99.90;;;;;;5074961;28;20051;-71
2022/01/26 08:02:47;;;;;;;84.20;38.65;;;2.70;99.90;;;;;;5057966;28;20509;-70
2022/01/26 08:05:14;;;;;;;84.32;39.58;;;2.80;99.90;;;;;;5074645;28;20040;-70
2022/01/26 08:07:39;;;;;;;87.35;38.80;;;2.70;99.90;;;;;;5074837;28;20032;-71
2022/01/26 08:10:07;;;;;;;86.40;39.90;;;2.80;99.90;;;;;;5074882;28;20505;-71
2022/01/26 08:12:33;;;;;;;87.32;40.20;;;2.80;99.90;;;;;;5074559;28;20413;-71
2022/01/26 08:14:58;;;;;;;94.25;43.20;;;2.80;99.90;;;;;;5074832;28;20131;-71
2022/01/26 08:17:24;;;;;;;94.90;41.90;;;2.80;99.90;;;;;;5074802;28;20524;-71
2022/01/26 08:19:52;;;;;;;98.72;45.42;;;2.90;99.90;;;;;;5074559;28;20032;-71
2022/01/26 08:22:19;;;;;;;99.30;44.85;;;2.90;99.90;;;;;;5074824;28;20039;-71
2022/01/26 08:24:46;;;;;;;103.50;46.08;;;2.90;99.90;;;;;;5074750;28;20048;-71
2022/01/26 08:27:13;;;;;;;105.72;47.72;;;2.90;99.90;;;;;;5074290;28;20553;-71
2022/01/26 08:29:43;;;;;;;100.63;48.40;;;2.90;99.90;;;;;;5074754;28;20032;-71
2022/01/26 08:32:08;;;;;;;106.75;48.17;;;2.90;99.90;;;;;;5074398;28;20044;-71
2022/01/26 08:34:34;;;;;;;106.47;48.67;;;2.90;99.90;;;;;;5074395;28;20036;-71
2022/01/26 08:37:00;;;;;;;104.25;48.50;;;2.90;99.90;;;;;;5077832;28;20055;-71
2022/01/26 08:39:26;;;;;;;107.18;50.05;;;3.00;99.90;;;;;;5061587;28;20044;-71
2022/01/26 08:41:52;;;;;;;111.65;50.05;;;3.00;99.90;;;;;;5078208;28;20046;-71
2022/01/26 08:44:18;;;;;;;111.25;53.58;;;3.00;99.90;;;;;;5078372;28;20040;-71
2022/01/26 08:46:44;;;;;;;114.43;52.83;;;3.10;99.90;;;;;;5078845;28;20036;-71
2022/01/26 08:49:10;;;;;;;109.30;53.30;;;3.10;99.90;;;;;;5078243;28;20051;-71
2022/01/26 08:51:36;;;;;;;113.28;53.65;;;3.10;99.90;;;;;;5077982;28;20036;-71
2022/01/26 08:54:02;;;;;;;115.28;54.85;;;3.20;99.90;;;;;;5078046;28;20040;-71
2022/01/26 08:56:28;;;;;;;114.15;55.38;;;3.20;99.90;;;;;;5077652;28;20481;-71
2022/01/26 08:58:54;;;;;;;119.35;56.58;;;3.20;99.90;;;;;;5077695;28;20079;-71
2022/01/26 09:01:20;;;;;;;115.85;54.33;;;3.20;99.90;;;;;;5077608;28;20456;-71
2022/01/26 09:03:46;;;;;;;120.93;57.53;;;3.20;99.90;;;;;;5060923;28;20040;-71
2022/01/26 09:06:12;;;;;;;126.20;57.92;;;3.20;99.90;;;;;;5077478;28;20055;-71
2022/01/26 09:08:40;;;;;;;125.28;59.17;;;3.20;99.90;;;;;;5077493;28;20043;-71
2022/01/26 09:11:06;;;;;;;121.95;56.70;;;3.20;99.90;;;;;;5061049;28;20451;-71
2022/01/26 09:13:34;;;;;;;123.47;57.30;;;3.30;99.90;;;;;;5077275;28;20498;-71
2022/01/26 09:16:04;;;;;;;124.15;58.72;;;3.30;99.90;;;;;;5077271;28;20048;-71
2022/01/26 09:18:35;;;;;;;126.65;58.97;;;3.30;99.90;;;;;;5077546;28;20036;-70
2022/01/26 09:21:01;;;;;;;122.03;58.85;;;3.40;99.90;;;;;;5077264;28;20123;-71
2022/01/26 09:23:26;;;;;;;122.88;59.42;;;3.40;99.90;;;;;;5060691;28;20122;-71
2022/01/26 09:25:52;;;;;;;123.30;57.38;;;3.40;99.90;;;;;;5077756;28;20051;-71
2022/01/26 09:28:17;;;;;;;127.15;58.08;;;3.50;99.90;;;;;;5077292;28;20032;-71
2022/01/26 09:30:43;;;;;;;123.20;58.50;;;3.50;99.90;;;;;;5060413;28;20563;-71
2022/01/26 09:33:09;;;;;;;120.65;57.95;;;3.50;99.90;;;;;;5076959;28;20040;-71
2022/01/26 09:35:34;;;;;;;119.35;57.78;;;3.50;99.90;;;;;;5077276;28;20039;-71
2022/01/26 09:38:00;;;;;;;121.82;57.55;;;3.60;99.90;;;;;;5077304;28;20686;-71
2022/01/26 09:40:25;;;;;;;115.78;57.03;;;3.60;99.90;;;;;;5076968;28;20526;-71
2022/01/26 09:42:51;;;;;;;119.50;56.67;;;3.60;99.90;;;;;;5076863;28;20050;-71
2022/01/26 09:45:17;;;;;;;117.30;57.85;;;3.60;99.90;;;;;;5076924;28;20135;-71
2022/01/26 09:47:44;;;;;;;120.05;56.95;;;3.60;99.90;;;;;;5059967;28;20042;-71
2022/01/26 09:50:09;;;;;;;122.60;57.20;;;3.60;99.90;;;;;;5076635;28;20039;-71
2022/01/26 09:52:45;;;;;;;125.18;57.60;;;3.70;99.90;;;;;;5060038;28;20123;-71
2022/01/26 09:55:10;;;;;;;120.47;56.83;;;3.70;99.90;;;;;;5076554;28;20607;-71
2022/01/26 09:57:38;;;;;;;115.68;55.40;;;3.70;99.90;;;;;;5076376;28;20068;-71
2022/01/26 10:00:05;;;;;;;103.72;53.30;;;3.70;99.90;;;;;;5076448;28;20456;-71
2022/01/26 10:02:34;;;;;;;108.47;53.20;;;3.70;99.90;;;;;;5077537;28;20375;-71
2022/01/26 10:05:06;;;;;;;112.28;52.92;;;3.80;99.90;;;;;;5076280;28;20039;-71
2022/01/26 10:10:31;;;;;;;104.88;50.78;;;3.80;99.90;;;;;;5076250;28;20498;-70
2022/01/26 10:15:45;;;;;;;102.13;50.90;;;3.90;99.90;;;;;;5076096;28;20048;-71
2022/01/26 10:18:19;;;;;;;101.60;50.75;;;3.90;99.90;;;;;;5076073;28;20051;-71
2022/01/26 10:20:59;;;;;;;104.72;51.75;;;3.90;99.90;;;;;;5076312;28;20383;-71
2022/01/26 10:23:27;;;;;;;98.97;49.80;;;3.90;99.90;;;;;;5076248;28;20040;-71
2022/01/26 10:26:02;;;;;;;103.05;50.47;;;3.90;99.90;;;;;;5075894;28;20048;-71
2022/01/26 10:28:52;;;;;;;98.70;50.30;;;4.00;99.90;;;;;;5075838;28;20387;-71
2022/01/26 10:31:21;;;;;;;105.20;50.33;;;4.00;99.90;;;;;;5076148;28;20085;-71
2022/01/26 10:34:10;;;;;;;98.60;48.42;;;4.00;99.90;;;;;;5076095;28;20032;-71
2022/01/26 10:36:43;;;;;;;101.40;49.80;;;4.00;99.90;;;;;;5075908;28;20052;-71
2022/01/26 10:41:54;;;;;;;90.88;47.05;;;4.00;99.90;;;;;;5075748;28;20048;-71
2022/01/26 10:44:36;;;;;;;97.28;49.38;;;4.10;99.90;;;;;;5075827;28;20048;-71
2022/01/26 10:47:05;;;;;;;92.15;47.42;;;4.10;99.90;;;;;;5075728;28;20040;-71
2022/01/26 10:52:54;;;;;;;91.00;45.72;;;4.10;99.90;;;;;;5076070;28;20040;-71
2022/01/26 10:55:09;;;;;;;100.00;48.30;;;4.20;99.90;;;;;;5072226;28;20540;-73
2022/01/26 10:57:35;;;;;;;91.40;47.17;;;4.10;99.90;;;;;;5075110;28;20406;-73
2022/01/26 11:00:03;;;;;;;88.03;46.10;;;4.10;99.90;;;;;;5075483;28;20046;-74
2022/01/26 11:02:33;;;;;;;83.72;42.92;;;4.20;99.90;;;;;;5075849;28;20040;-74
2022/01/26 11:04:59;;;;;;;95.53;44.90;;;4.20;99.90;;;;;;5075495;28;20040;-74
2022/01/26 11:07:51;;;;;;;83.82;42.03;;;4.20;99.90;;;;;;5075210;28;20082;-73
2022/01/26 11:10:18;;;;;;;87.68;42.75;;;4.30;99.90;;;;;;5070823;28;20048;-73
2022/01/26 11:12:44;;;;;;;86.53;43.42;;;4.20;99.90;;;;;;5075251;28;20068;-73
2022/01/26 11:15:12;;;;;;;89.38;43.42;;;4.30;99.90;;;;;;5058783;28;20032;-74
2022/01/26 11:17:43;;;;;;;81.03;41.40;;;4.30;99.90;;;;;;5075167;28;20032;-74
2022/01/26 11:20:32;;;;;;;86.13;44.60;;;4.30;99.90;;;;;;5075208;28;20068;-73
2022/01/26 11:23:01;;;;;;;84.20;41.55;;;4.30;99.90;;;;;;5075358;28;20047;-73
2022/01/26 11:25:29;;;;;;;86.50;41.80;;;4.30;99.90;;;;;;5075528;28;20584;-73
2022/01/26 11:27:56;;;;;;;93.05;44.25;;;4.30;99.90;;;;;;5075035;28;20043;-73
2022/01/26 11:30:27;;;;;;;84.75;42.08;;;4.30;99.90;;;;;;5058718;28;20078;-74
2022/01/26 11:32:58;;;;;;;81.85;41.50;;;4.30;99.90;;;;;;5075205;28;20123;-74
2022/01/26 11:35:27;;;;;;;89.60;43.60;;;4.40;99.90;;;;;;5058533;28;20040;-73
2022/01/26 11:38:29;;;;;;;88.20;44.15;;;4.40;99.90;;;;;;5058110;28;20040;-73
2022/01/26 11:46:31;;;;;;;88.80;42.60;;;4.40;99.90;;;;;;5074773;28;20456;-73
2022/01/26 11:49:10;;;;;;;84.50;42.20;;;4.40;99.90;;;;;;5074907;28;20046;-74
2022/01/26 11:51:45;;;;;;;81.28;41.78;;;4.50;99.90;;;;;;5074950;28;20036;-73
2022/01/26 11:54:13;;;;;;;90.43;43.22;;;4.50;99.90;;;;;;5074813;28;20044;-74
2022/01/26 11:56:39;;;;;;;87.43;41.97;;;4.50;99.90;;;;;;5074727;28;20040;-73
2022/01/26 11:59:15;;;;;;;81.78;41.35;;;4.50;99.90;;;;;;5075216;28;20115;-73
2022/01/26 12:01:42;;;;;;;86.00;41.42;;;4.50;99.90;;;;;;5075174;28;20048;-73
2022/01/26 12:04:14;;;;;;;86.07;40.15;;;4.50;99.90;;;;;;5075078;28;20418;-73
2022/01/26 12:06:46;;;;;;;84.10;41.25;;;4.50;99.90;;;;;;5075125;28;20036;-73
2022/01/26 12:09:12;;;;;;;79.20;40.38;;;4.50;99.90;;;;;;5058356;28;20036;-73
2022/01/26 12:11:38;;;;;;;77.93;39.58;;;4.40;99.90;;;;;;5061678;28;20032;-74
2022/01/26 12:14:06;;;;;;;85.93;40.85;;;4.40;99.90;;;;;;5061944;28;20039;-74
2022/01/26 12:16:37;;;;;;;76.63;39.60;;;4.40;99.90;;;;;;5078391;28;20094;-73
2022/01/26 12:35:36;;;;;;;119.72;51.50;;;4.30;99.90;;;;;;5078740;28;20040;-74
2022/01/26 12:38:18;;;;;;;107.65;48.95;;;4.20;99.90;;;;;;5061920;28;20064;-73
2022/01/26 12:41:19;;;;;;;110.28;49.60;;;4.20;99.90;;;;;;5062065;28;20446;-74
2022/01/26 12:43:48;;;;;;;117.32;49.78;;;4.30;99.90;;;;;;5078545;28;20048;-74
2022/01/26 12:46:23;;;;;;;107.13;50.22;;;4.30;99.90;;;;;;5078137;28;20127;-73
2022/01/26 12:48:59;;;;;;;108.68;49.05;;;4.30;99.90;;;;;;5061670;28;20032;-74
2022/01/26 12:51:26;;;;;;;98.15;47.13;;;4.30;99.90;;;;;;5061577;28;20042;-74
2022/01/26 12:53:55;;;;;;;101.75;48.05;;;4.30;99.90;;;;;;5078104;28;20068;-74
2022/01/26 12:56:24;;;;;;;90.57;43.72;;;4.30;99.90;;;;;;5061382;28;20118;-74
2022/01/26 12:59:02;;;;;;;91.35;43.05;;;4.30;99.90;;;;;;5078090;28;20040;-74
2022/01/26 13:01:28;;;;;;;85.35;41.75;;;4.30;99.90;;;;;;5078188;28;20051;-74
2022/01/26 13:04:00;;;;;;;86.38;40.30;;;4.30;99.90;;;;;;5061333;28;20031;-73
2022/01/26 13:06:28;;;;;;;94.93;42.10;;;4.30;99.90;;;;;;5077712;28;20425;-73
2022/01/26 13:08:56;;;;;;;84.88;40.95;;;4.30;99.90;;;;;;5078371;28;20072;-73
2022/01/26 13:11:30;;;;;;;82.65;40.40;;;4.30;99.90;;;;;;5078303;28;20046;-74
2022/01/26 13:14:23;;;;;;;87.63;40.65;;;4.30;99.90;;;;;;5077908;28;20047;-74
2022/01/26 13:17:33;;;;;;;93.80;42.75;;;4.30;99.90;;;;;;5078294;28;20036;-73
2022/01/26 13:31:16;;;;;;;93.55;41.38;;;4.40;99.90;;;;;;5058598;28;20525;-73
2022/01/26 13:41:44;;;;;;;83.55;39.58;;;4.40;99.90;;;;;;5077089;28;20056;-73
2022/01/26 13:49:48;;;;;;;74.47;36.42;;;4.40;99.90;;;;;;5077218;28;20040;-73
2022/01/26 13:52:39;;;;;;;71.45;35.88;;;4.50;99.90;;;;;;5077109;28;20551;-73
2022/01/26 13:55:29;;;;;;;75.18;36.08;;;4.50;99.90;;;;;;5076636;28;20044;-74
2022/01/26 14:00:42;;;;;;;67.47;34.08;;;4.50;99.90;;;;;;5077367;28;20417;-73
2022/01/26 14:03:10;;;;;;;71.90;35.75;;;4.50;99.90;;;;;;5077481;28;20040;-73
2022/01/26 14:05:35;;;;;;;73.28;35.20;;;4.50;99.90;;;;;;5076705;28;20044;-73
2022/01/26 14:08:02;;;;;;;70.75;36.13;;;4.60;99.90;;;;;;5076525;28;20063;-73
2022/01/26 14:10:28;;;;;;;77.68;36.70;;;4.60;99.90;;;;;;5076864;28;20067;-73
2022/01/26 14:12:53;;;;;;;77.90;35.85;;;4.60;99.90;;;;;;5076462;28;20063;-73
2022/01/26 14:15:24;;;;;;;74.65;36.05;;;4.60;99.90;;;;;;5076607;28;20032;-74
2022/01/26 14:18:02;;;;;;;68.07;35.17;;;4.60;99.90;;;;;;5076789;28;20036;-74
2022/01/26 14:25:58;;;;;;;70.00;34.55;;;4.70;99.90;;;;;;4996013;28;20544;-74
2022/01/26 14:28:31;;;;;;;69.70;34.42;;;4.70;99.90;;;;;;4979719;28;20045;-74
2022/01/26 14:55:42;;;;;;;69.68;35.25;;;4.70;99.90;;;;;;4995339;28;20091;-74
2022/01/26 15:08:42;;;;;;;69.95;35.35;;;4.80;99.90;;;;;;5075415;28;20048;-73
2022/01/26 15:19:13;;;;;;;74.15;35.72;;;4.90;99.90;;;;;;5075916;28;20413;-74
2022/01/26 15:49:30;;;;;;;74.15;35.20;;;4.90;99.90;;;;;;5079661;28;20047;-74
2022/01/26 16:05:45;;;;;;;70.05;33.33;;;4.90;99.90;;;;;;5079127;28;20040;-75
2022/01/26 16:08:28;;;;;;;77.82;36.47;;;4.80;99.90;;;;;;5078028;28;20048;-75
2022/01/26 16:21:25;;;;;;;66.25;34.92;;;4.80;99.90;;;;;;5078791;28;20406;-74
2022/01/26 16:27:54;;;;;;;72.03;36.15;;;4.80;99.90;;;;;;5078413;28;20044;-75
2022/01/26 18:13:47;;;;;;;56.03;29.40;;;5.30;99.90;;;;;;5076256;28;20040;-73
2022/01/26 18:16:07;;;;;;;52.95;30.08;;;5.30;99.90;;;;;;5076311;28;20055;-72
2022/01/26 18:26:52;;;;;;;52.13;28.45;;;5.30;99.90;;;;;;5076110;28;20048;-72
2022/01/26 18:40:44;;;;;;;48.38;26.98;;;5.40;99.90;;;;;;4976089;28;20082;-72
2022/01/26 18:51:42;;;;;;;48.30;26.55;;;5.50;99.90;;;;;;4969689;28;20129;-72
2022/01/26 18:54:09;;;;;;;50.28;25.50;;;5.50;99.90;;;;;;4976240;28;20525;-72
2022/01/26 18:56:35;;;;;;;48.03;26.10;;;5.50;99.90;;;;;;4976009;28;20057;-72
2022/01/26 18:59:01;;;;;;;45.53;25.27;;;5.50;99.90;;;;;;4976145;28;20432;-72
2022/01/26 19:01:27;;;;;;;43.42;25.80;;;5.50;99.90;;;;;;4975786;28;20523;-72
2022/01/26 19:03:53;;;;;;;47.50;25.88;;;5.50;99.90;;;;;;4975929;28;20544;-72
2022/01/26 19:06:19;;;;;;;46.78;24.83;;;5.50;99.90;;;;;;4975631;28;20047;-72